createdAt,value
2022-11-15T00:02:40.388Z,100955.19
2022-11-15T00:05:28.676Z,100957.84
2022-11-15T00:08:16.960Z,100950.16
2022-11-15T00:11:05.567Z,100904.41
2022-11-15T00:13:52.305Z,100944.88
2022-11-15T00:16:39.319Z,100947.63
2022-11-15T00:19:25.984Z,100945.16
2022-11-15T00:22:14.387Z,100933.13
2022-11-15T00:25:01.097Z,100926.25
2022-11-15T00:27:48.182Z,100926.25
2022-11-15T00:30:35.700Z,100917.34
2022-11-15T00:33:22.516Z,100921.84
2022-11-15T00:36:11.659Z,100917.78
2022-11-15T00:38:59.820Z,100913.50
2022-11-15T00:41:46.463Z,100919.69
2022-11-15T00:44:33.310Z,100911.84
2022-11-15T00:47:20.112Z,100858.38
2022-11-15T00:50:09.119Z,100898.81
2022-11-15T00:52:58.630Z,100897.94
2022-11-15T00:55:46.764Z,100905.06
2022-11-15T00:58:34.303Z,100897.22
2022-11-15T01:01:21.006Z,100899.03
2022-11-15T01:04:07.978Z,100904.31
2022-11-15T01:06:55.053Z,100898.00
2022-11-15T01:09:41.952Z,100908.59
2022-11-15T01:12:30.412Z,100912.94
2022-11-15T01:15:17.599Z,100908.56
2022-11-15T01:18:04.268Z,100912.88
2022-11-15T01:20:51.238Z,100911.31
2022-11-15T01:23:39.011Z,100884.00
2022-11-15T01:26:26.986Z,100888.19
2022-11-15T01:29:14.854Z,100888.16
2022-11-15T01:32:01.514Z,100905.28
2022-11-15T01:34:48.439Z,100903.63
2022-11-15T01:37:35.150Z,100905.47
2022-11-15T01:40:22.203Z,100896.75
2022-11-15T01:43:24.872Z,100888.25
2022-11-15T01:46:31.114Z,100863.81
2022-11-15T01:49:22.204Z,100873.75
2022-11-15T01:52:15.773Z,100852.63
2022-11-15T01:55:10.358Z,100865.00
2022-11-15T01:58:01.909Z,100843.84
2022-11-15T02:00:50.657Z,100864.19
2022-11-15T02:03:45.883Z,100868.50
2022-11-15T02:06:33.646Z,100865.88
2022-11-15T02:09:20.956Z,100865.19
2022-11-15T02:12:10.918Z,100858.19
2022-11-15T02:14:58.946Z,100860.72
2022-11-15T02:18:02.751Z,100849.66
2022-11-15T02:21:14.538Z,100842.81
2022-11-15T02:24:51.352Z,100842.78
2022-11-15T02:28:01.620Z,100818.25
2022-11-15T02:30:57.473Z,100824.47
2022-11-15T02:33:55.339Z,100836.03
2022-11-15T02:36:51.572Z,100815.75
2022-11-15T02:39:46.383Z,100829.72
2022-11-15T02:42:56.341Z,100834.28
2022-11-15T02:45:53.093Z,100827.50
2022-11-15T02:48:41.394Z,100830.84
2022-11-15T02:51:28.164Z,100812.56
2022-11-15T02:54:22.376Z,100810.84
2022-11-15T02:57:16.399Z,100832.81
2022-11-15T03:00:11.031Z,100804.81
2022-11-15T03:03:15.974Z,100833.88
2022-11-15T03:06:16.229Z,100801.47
2022-11-15T03:09:12.074Z,100820.75
2022-11-15T03:12:09.174Z,100799.63
2022-11-15T03:15:01.212Z,100828.53
2022-11-15T03:17:57.623Z,100815.28
2022-11-15T03:20:48.290Z,100825.94
2022-11-15T03:23:36.991Z,100824.94
2022-11-15T03:26:27.476Z,100833.72
2022-11-15T03:29:20.092Z,100789.88
2022-11-15T03:32:13.579Z,100839.94
2022-11-15T03:35:04.190Z,100828.63
2022-11-15T03:37:59.162Z,100812.84
2022-11-15T03:41:01.863Z,100824.25
2022-11-15T03:43:55.052Z,100822.47
2022-11-15T03:46:48.925Z,100805.00
2022-11-15T03:49:38.633Z,100808.66
2022-11-15T03:52:25.510Z,100783.06
2022-11-15T03:55:18.850Z,100779.69
2022-11-15T03:58:05.720Z,100778.91
2022-11-15T04:00:52.416Z,100807.91
2022-11-15T04:03:39.400Z,100812.28
2022-11-15T04:06:26.229Z,100799.94
2022-11-15T04:09:13.255Z,100800.03
2022-11-15T04:12:01.363Z,100806.22
2022-11-15T04:15:07.984Z,100787.81
2022-11-15T04:17:57.671Z,100774.53
2022-11-15T04:21:01.989Z,100814.09
2022-11-15T04:24:06.439Z,100815.78
2022-11-15T04:26:53.072Z,100811.34
2022-11-15T04:29:41.265Z,100822.59
2022-11-15T04:32:27.937Z,100818.00
2022-11-15T04:35:15.100Z,100822.47
2022-11-15T04:38:03.077Z,100819.84
2022-11-15T04:40:50.053Z,100818.94
2022-11-15T04:43:37.015Z,100813.63
2022-11-15T04:46:26.512Z,100824.88
2022-11-15T04:49:13.620Z,100820.66
2022-11-15T04:52:00.621Z,100817.16
2022-11-15T04:54:47.652Z,100817.28
2022-11-15T04:57:34.551Z,100788.31
2022-11-15T05:00:21.759Z,100804.94
2022-11-15T05:03:29.667Z,100812.81
2022-11-15T05:06:16.615Z,100799.75
2022-11-15T05:09:03.512Z,100797.91
2022-11-15T05:11:50.567Z,100810.25
2022-11-15T05:14:37.263Z,100815.44
2022-11-15T05:17:24.066Z,100816.25
2022-11-15T05:20:13.743Z,100815.41
2022-11-15T05:23:00.395Z,100820.72
2022-11-15T05:25:47.347Z,100820.75
2022-11-15T05:28:35.391Z,100816.41
2022-11-15T05:31:22.213Z,100833.16
2022-11-15T05:34:09.629Z,100814.75
2022-11-15T05:36:57.992Z,100825.16
2022-11-15T05:39:44.588Z,100827.03
2022-11-15T05:42:32.335Z,100820.03
2022-11-15T05:45:26.331Z,100829.66
2022-11-15T05:48:14.446Z,100810.25
2022-11-15T05:51:02.028Z,100832.19
2022-11-15T05:53:51.729Z,100809.34
2022-11-15T05:56:38.556Z,100827.00
2022-11-15T05:59:25.956Z,100826.19
2022-11-15T06:02:13.542Z,100823.50
2022-11-15T06:05:00.482Z,100824.56
2022-11-15T06:07:47.506Z,100811.44
2022-11-15T06:10:36.660Z,100821.09
2022-11-15T06:13:23.686Z,100825.44
2022-11-15T06:16:10.628Z,100826.34
2022-11-15T06:18:57.900Z,100834.19
2022-11-15T06:21:44.795Z,100842.81
2022-11-15T06:24:31.685Z,100812.16
2022-11-15T06:27:20.076Z,100847.19
2022-11-15T06:30:08.271Z,100847.28
2022-11-15T06:33:03.611Z,100821.72
2022-11-15T06:35:50.705Z,100827.19
2022-11-15T06:38:38.240Z,100825.16
2022-11-15T06:41:25.429Z,100835.00
2022-11-15T06:44:13.818Z,100849.00
2022-11-15T06:47:00.419Z,100851.50
2022-11-15T06:49:47.442Z,100848.91
2022-11-15T06:52:34.872Z,100850.47
2022-11-15T06:55:21.781Z,100856.47
2022-11-15T06:58:08.756Z,100849.44
2022-11-15T07:01:00.901Z,100854.78
2022-11-15T07:03:47.883Z,100846.81
2022-11-15T07:06:34.779Z,100857.38
2022-11-15T07:09:21.818Z,100849.44
2022-11-15T07:12:09.073Z,100853.78
2022-11-15T07:14:56.272Z,100849.44
2022-11-15T07:17:44.321Z,100851.31
2022-11-15T07:20:31.089Z,100853.09
2022-11-15T07:23:18.118Z,100849.56
2022-11-15T07:26:05.313Z,100860.97
2022-11-15T07:28:52.669Z,100853.16
2022-11-15T07:31:39.934Z,100854.13
2022-11-15T07:34:28.228Z,100856.63
2022-11-15T07:37:15.043Z,100862.00
2022-11-15T07:40:01.865Z,100858.44
2022-11-15T07:42:54.899Z,100829.56
2022-11-15T07:45:44.376Z,100859.38
2022-11-15T07:48:42.782Z,100854.88
2022-11-15T07:51:32.019Z,100831.00
2022-11-15T07:54:19.070Z,100854.88
2022-11-15T07:57:07.776Z,100846.13
2022-11-15T07:59:54.968Z,100856.41
2022-11-15T08:02:42.252Z,100852.06
2022-11-15T08:05:29.459Z,100853.63
2022-11-15T08:08:17.805Z,100850.91
2022-11-15T08:11:06.116Z,100826.50
2022-11-15T08:13:52.795Z,100835.38
2022-11-15T08:16:39.767Z,100823.28
2022-11-15T08:19:26.892Z,100832.06
2022-11-15T08:22:13.562Z,100835.56
2022-11-15T08:25:01.846Z,100825.97
2022-11-15T08:27:48.779Z,100821.63
2022-11-15T08:30:39.580Z,100802.31
2022-11-15T08:33:26.820Z,100816.38
2022-11-15T08:36:16.773Z,100814.66
2022-11-15T08:39:03.528Z,100809.41
2022-11-15T08:41:52.095Z,100811.09
2022-11-15T08:44:39.371Z,100803.97
2022-11-15T08:47:26.535Z,100769.69
2022-11-15T08:50:13.609Z,100806.66
2022-11-15T08:53:06.405Z,100796.03
2022-11-15T08:55:53.044Z,100801.94
2022-11-15T08:58:42.004Z,100772.94
2022-11-15T09:01:28.874Z,100771.31
2022-11-15T09:04:15.838Z,100790.69
2022-11-15T09:07:02.773Z,100801.88
2022-11-15T09:09:49.639Z,100795.78
2022-11-15T09:12:36.550Z,100787.28
2022-11-15T09:15:24.643Z,100788.31
2022-11-15T09:18:11.256Z,100787.41
2022-11-15T09:20:59.315Z,100785.69
2022-11-15T09:23:46.034Z,100785.63
2022-11-15T09:26:32.949Z,100786.69
2022-11-15T09:29:20.535Z,100782.34
2022-11-15T09:32:08.969Z,100785.69
2022-11-15T09:34:56.304Z,100784.97
2022-11-15T09:37:43.355Z,100774.59
2022-11-15T09:40:32.264Z,100744.69
2022-11-15T09:43:34.487Z,100772.06
2022-11-15T09:46:33.410Z,100780.84
2022-11-15T09:49:33.354Z,100745.75
2022-11-15T09:52:28.069Z,100729.06
2022-11-15T09:54:56.712Z,100750.28
2022-11-15T09:57:34.654Z,100746.00
2022-11-15T10:00:45.505Z,100746.97
2022-11-15T10:03:16.215Z,100745.28
2022-11-15T10:05:49.343Z,100720.75
2022-11-15T10:08:37.885Z,100717.22
2022-11-15T10:11:36.157Z,100726.88
2022-11-15T10:14:04.161Z,100692.69
2022-11-15T10:17:04.472Z,100720.78
2022-11-15T10:19:41.729Z,100698.06
2022-11-15T10:22:27.727Z,100696.34
2022-11-15T10:25:14.641Z,100713.94
2022-11-15T10:27:44.186Z,100711.25
2022-11-15T10:30:16.803Z,100701.59
2022-11-15T10:32:48.316Z,100677.09
2022-11-15T10:35:26.653Z,100687.56
2022-11-15T10:38:08.472Z,100694.63
2022-11-15T10:40:38.394Z,100694.66
2022-11-15T10:43:17.525Z,100681.50
2022-11-15T10:45:47.285Z,100670.13
2022-11-15T10:48:28.432Z,100675.38
2022-11-15T10:50:58.087Z,100674.47
2022-11-15T10:53:35.091Z,100636.75
2022-11-15T10:56:09.125Z,100645.50
2022-11-15T10:58:43.744Z,100620.09
2022-11-15T11:01:17.017Z,100646.34
2022-11-15T11:03:47.829Z,100627.94
2022-11-15T11:06:19.161Z,100629.66
2022-11-15T11:09:00.283Z,100623.50
2022-11-15T11:11:48.052Z,100624.25
2022-11-15T11:14:24.063Z,100618.06
2022-11-15T11:16:57.468Z,100610.06
2022-11-15T11:20:02.692Z,100586.44
2022-11-15T11:22:41.756Z,100587.38
2022-11-15T11:25:30.450Z,100576.81
2022-11-15T11:28:24.384Z,100566.13
2022-11-15T11:31:08.996Z,100573.81
2022-11-15T11:33:46.974Z,100564.38
2022-11-15T11:36:26.885Z,100538.84
2022-11-15T11:39:12.898Z,100558.91
2022-11-15T11:42:05.944Z,100551.69
2022-11-15T11:44:52.634Z,100531.84
2022-11-15T11:47:25.855Z,100515.75
2022-11-15T11:49:59.228Z,100525.31
2022-11-15T11:52:33.466Z,100510.22
2022-11-15T11:55:14.794Z,100524.34
2022-11-15T11:57:50.158Z,100504.16
2022-11-15T12:00:23.021Z,100510.88
2022-11-15T12:03:10.160Z,100506.19
2022-11-15T12:05:43.951Z,100495.75
2022-11-15T12:08:33.228Z,100499.03
2022-11-15T12:11:11.803Z,100457.88
2022-11-15T12:13:44.537Z,100471.75
2022-11-15T12:16:18.847Z,100480.06
2022-11-15T12:18:51.153Z,100473.19
2022-11-15T12:21:28.862Z,100467.81
2022-11-15T12:24:05.168Z,100467.69
2022-11-15T12:26:39.482Z,100474.91
2022-11-15T12:29:21.560Z,100447.84
2022-11-15T12:31:56.636Z,100464.47
2022-11-15T12:34:47.405Z,100466.28
2022-11-15T12:37:36.154Z,100452.50
2022-11-15T12:40:27.139Z,100443.84
2022-11-15T12:43:40.786Z,100453.47
2022-11-15T12:46:21.520Z,100430.69
2022-11-15T12:48:57.604Z,100422.09
2022-11-15T12:52:11.635Z,100430.72
2022-11-15T12:55:00.678Z,100408.84
2022-11-15T12:57:37.399Z,100427.16
2022-11-15T13:00:48.138Z,100419.31
2022-11-15T13:03:30.987Z,100416.81
2022-11-15T13:06:32.482Z,100408.84
2022-11-15T13:09:00.758Z,100396.56
2022-11-15T13:11:55.748Z,100374.63
2022-11-15T13:14:49.202Z,100386.91
2022-11-15T13:17:35.879Z,100389.63
2022-11-15T13:20:34.149Z,100380.72
2022-11-15T13:23:11.417Z,100379.78
2022-11-15T13:26:17.738Z,100369.41
2022-11-15T13:28:50.474Z,100347.41
2022-11-15T13:31:37.679Z,100367.47
2022-11-15T13:34:50.596Z,100361.31
2022-11-15T13:37:33.454Z,100344.72
2022-11-15T13:40:23.100Z,100349.06
2022-11-15T13:42:51.650Z,100336.75
2022-11-15T13:45:21.756Z,100314.09
2022-11-15T13:48:00.921Z,100318.53
2022-11-15T13:50:35.908Z,100327.06
2022-11-15T13:53:07.285Z,100313.97
2022-11-15T13:55:35.944Z,100313.03
2022-11-15T13:58:07.788Z,100286.13
2022-11-15T14:00:41.180Z,100286.13
2022-11-15T14:03:19.805Z,100285.09
2022-11-15T14:06:07.467Z,100298.22
2022-11-15T14:08:37.698Z,100278.31
2022-11-15T14:11:18.826Z,100284.59
2022-11-15T14:14:14.595Z,100282.84
2022-11-15T14:16:45.064Z,100269.59
2022-11-15T14:19:35.119Z,100256.47
2022-11-15T14:22:23.151Z,100262.63
2022-11-15T14:27:46.754Z,100243.31
2022-11-15T14:30:19.384Z,100231.09
2022-11-15T14:32:50.352Z,100250.28
2022-11-15T14:35:21.355Z,100240.78
2022-11-15T14:37:49.777Z,100231.13
2022-11-15T14:40:20.970Z,100223.25
2022-11-15T14:42:51.937Z,100229.19
2022-11-15T14:45:23.893Z,100214.41
2022-11-15T14:47:52.208Z,100209.06
2022-11-15T14:50:23.124Z,100228.34
2022-11-15T14:52:51.808Z,100223.09
2022-11-15T14:55:24.255Z,100207.34
2022-11-15T14:57:54.422Z,100224.03
2022-11-15T15:00:23.968Z,100219.72
2022-11-15T15:02:55.983Z,100190.94
2022-11-15T15:05:28.132Z,100203.25
2022-11-15T15:07:56.526Z,100207.59
2022-11-15T15:10:41.016Z,100201.56
2022-11-15T15:13:20.387Z,100204.88
2022-11-15T15:15:50.001Z,100199.72
2022-11-15T15:18:19.240Z,100203.16
2022-11-15T15:21:03.857Z,100180.50
2022-11-15T15:23:32.212Z,100192.75
2022-11-15T15:26:00.654Z,100190.19
2022-11-15T15:28:34.514Z,100192.91
2022-11-15T15:31:03.295Z,100192.09
2022-11-15T15:33:31.667Z,100188.53
2022-11-15T15:36:00.137Z,100184.09
2022-11-15T15:38:28.789Z,100169.31
2022-11-15T15:40:57.546Z,100172.75
2022-11-15T15:43:25.800Z,100185.06
2022-11-15T15:45:55.511Z,100181.56
2022-11-15T15:48:23.753Z,100186.06
2022-11-15T15:50:52.187Z,100192.25
2022-11-15T15:53:20.441Z,100160.88
2022-11-15T15:55:48.723Z,100173.06
2022-11-15T15:58:17.098Z,100181.06
2022-11-15T16:00:45.357Z,100186.41
2022-11-15T16:03:15.025Z,100189.97
2022-11-15T16:05:43.330Z,100165.56
2022-11-15T16:08:20.046Z,100187.44
2022-11-15T16:10:49.613Z,100190.97
2022-11-15T16:13:18.542Z,100189.22
2022-11-15T16:15:49.584Z,100194.47
2022-11-15T16:18:20.212Z,100171.84
2022-11-15T16:20:52.990Z,100198.09
2022-11-15T16:23:24.588Z,100178.81
2022-11-15T16:25:56.515Z,100192.88
2022-11-15T16:28:27.157Z,100200.72
2022-11-15T16:31:03.903Z,100178.06
2022-11-15T16:33:34.386Z,100201.66
2022-11-15T16:36:03.258Z,100158.94
2022-11-15T16:38:32.443Z,100199.91
2022-11-15T16:41:01.005Z,100192.94
2022-11-15T16:43:29.288Z,100196.41
2022-11-15T16:45:57.608Z,100198.19
2022-11-15T16:48:28.270Z,100195.56
2022-11-15T16:51:00.061Z,100199.97
2022-11-15T16:53:29.254Z,100173.78
2022-11-15T16:55:58.141Z,100195.66
2022-11-15T16:58:26.781Z,100200.03
2022-11-15T17:00:57.648Z,100199.16
2022-11-15T17:03:26.525Z,100196.53
2022-11-15T17:05:59.282Z,100200.91
2022-11-15T17:08:28.976Z,100200.91
2022-11-15T17:10:57.708Z,100172.13
2022-11-15T17:13:26.075Z,100191.31
2022-11-15T17:16:08.910Z,100189.53
2022-11-15T17:18:38.240Z,100198.28
2022-11-15T17:21:09.448Z,100186.97
2022-11-15T17:23:39.315Z,100189.56
2022-11-15T17:26:28.161Z,100186.09
2022-11-15T17:28:57.868Z,100156.38
2022-11-15T17:31:27.031Z,100167.75
2022-11-15T17:33:55.485Z,100185.22
2022-11-15T17:36:24.110Z,100162.56
2022-11-15T17:38:59.099Z,100184.38
2022-11-15T17:41:28.140Z,100180.88
2022-11-15T17:43:59.208Z,100186.97
2022-11-15T17:46:29.408Z,100177.41
2022-11-15T17:48:59.164Z,100189.63
2022-11-15T17:51:27.812Z,100189.63
2022-11-15T17:53:58.031Z,100188.75
2022-11-15T17:56:28.696Z,100162.53
2022-11-15T17:59:00.103Z,100149.44
2022-11-15T18:01:31.067Z,100156.41
2022-11-15T18:04:02.073Z,100152.94
2022-11-15T18:06:34.267Z,100150.28
2022-11-15T18:09:07.570Z,100177.41
2022-11-15T18:11:39.238Z,100175.63
2022-11-15T18:14:10.342Z,100179.16
2022-11-15T18:16:40.230Z,100167.75
2022-11-15T18:19:13.289Z,100150.31
2022-11-15T18:21:57.123Z,100169.47
2022-11-15T18:24:29.231Z,100158.13
2022-11-15T18:26:58.762Z,100106.59
2022-11-15T18:29:27.326Z,100163.28
2022-11-15T18:31:56.387Z,100167.69
2022-11-15T18:34:27.048Z,100167.66
2022-11-15T18:36:55.805Z,100165.94
2022-11-15T18:39:24.066Z,100163.28
2022-11-15T18:41:53.879Z,100141.50
2022-11-15T18:44:22.298Z,100148.44
2022-11-15T18:46:51.393Z,100147.50
2022-11-15T18:49:20.717Z,100144.03
2022-11-15T18:51:50.006Z,100151.91
2022-11-15T18:54:19.603Z,100116.13
2022-11-15T18:56:48.052Z,100148.38
2022-11-15T18:59:17.917Z,100137.88
2022-11-15T19:01:48.305Z,100125.69
2022-11-15T19:04:19.503Z,100126.56
2022-11-15T19:06:51.051Z,100127.38
2022-11-15T19:09:20.837Z,100138.81
2022-11-15T19:11:52.319Z,100096.00
2022-11-15T19:14:24.237Z,100124.72
2022-11-15T19:16:55.148Z,100136.00
2022-11-15T19:19:25.884Z,100136.06
2022-11-15T19:21:54.951Z,100089.78
2022-11-15T19:24:23.268Z,100131.78
2022-11-15T19:26:51.632Z,100123.94
2022-11-15T19:29:21.373Z,100125.59
2022-11-15T19:31:49.870Z,100127.28
2022-11-15T19:34:18.954Z,100126.38
2022-11-15T19:36:47.416Z,100121.28
2022-11-15T19:39:18.720Z,100101.09
2022-11-15T19:41:47.779Z,100121.16
2022-11-15T19:44:16.290Z,100128.09
2022-11-15T19:46:46.074Z,100123.81
2022-11-15T19:49:14.698Z,100109.91
2022-11-15T19:51:45.211Z,100116.84
2022-11-15T19:54:13.668Z,100099.34
2022-11-15T19:56:42.131Z,100113.22
2022-11-15T19:59:11.838Z,100099.25
2022-11-15T20:01:40.325Z,100106.09
2022-11-15T20:04:10.898Z,100092.06
2022-11-15T20:06:42.248Z,100069.34
2022-11-15T20:09:14.454Z,100084.09
2022-11-15T20:11:44.060Z,100096.34
2022-11-15T20:14:13.527Z,100069.38
2022-11-15T20:16:42.565Z,100088.50
2022-11-15T20:19:15.876Z,100074.59
2022-11-15T20:21:44.801Z,100088.59
2022-11-15T20:24:13.525Z,100095.66
2022-11-15T20:26:42.863Z,100080.88
2022-11-15T20:29:11.805Z,100080.03
2022-11-15T20:31:40.231Z,100087.81
2022-11-15T20:34:08.878Z,100095.59
2022-11-15T20:36:38.511Z,100098.13
2022-11-15T20:39:06.841Z,100086.72
2022-11-15T20:41:35.131Z,100090.19
2022-11-15T20:44:03.962Z,100078.81
2022-11-15T20:46:32.238Z,100087.59
2022-11-15T20:49:00.732Z,100081.53
2022-11-15T20:51:29.065Z,100092.91
2022-11-15T20:53:58.938Z,100072.66
2022-11-15T20:56:27.242Z,100080.50
2022-11-15T20:58:56.576Z,100080.50
2022-11-15T21:01:25.547Z,100078.72
2022-11-15T21:03:55.192Z,100073.47
2022-11-15T21:06:24.627Z,100039.44
2022-11-15T21:09:11.959Z,100066.50
2022-11-15T21:11:59.602Z,100057.75
2022-11-15T21:14:28.023Z,100054.22
2022-11-15T21:16:56.490Z,100041.97
2022-11-15T21:19:28.979Z,100033.25
2022-11-15T21:22:01.398Z,100044.56
2022-11-15T21:24:30.049Z,100045.41
2022-11-15T21:26:59.878Z,100032.34
2022-11-15T21:29:28.661Z,100030.56
2022-11-15T21:31:57.056Z,100032.34
2022-11-15T21:34:25.294Z,100013.03
2022-11-15T21:36:53.676Z,100027.09
2022-11-15T21:39:21.997Z,100035.78
2022-11-15T21:41:50.331Z,100019.28
2022-11-15T21:44:19.984Z,100027.03
2022-11-15T21:46:48.462Z,100013.00
2022-11-15T21:49:19.126Z,100017.34
2022-11-15T21:51:47.560Z,100010.31
2022-11-15T21:54:15.934Z,99996.41
2022-11-15T21:56:45.454Z,99997.34
2022-11-15T21:59:13.916Z,100018.25
2022-11-15T22:02:01.397Z,100011.28
2022-11-15T22:04:29.740Z,99999.03
2022-11-15T22:06:58.218Z,99988.44
2022-11-15T22:09:26.899Z,99976.22
2022-11-15T22:11:55.364Z,99999.78
2022-11-15T22:14:24.138Z,99997.09
2022-11-15T22:16:53.797Z,99991.84
2022-11-15T22:19:22.611Z,99985.63
2022-11-15T22:21:50.915Z,99976.97
2022-11-15T22:24:19.259Z,99980.34
2022-11-15T22:26:47.500Z,99959.47
2022-11-15T22:29:15.692Z,99982.13
2022-11-15T22:31:43.943Z,99983.81
2022-11-15T22:34:15.863Z,99982.09
2022-11-15T22:37:13.305Z,99976.00
2022-11-15T22:39:34.059Z,99970.66
2022-11-15T22:42:02.324Z,99971.56
2022-11-15T22:44:30.647Z,99968.13
2022-11-15T22:46:59.126Z,99961.06
2022-11-15T22:49:28.826Z,99968.09
2022-11-15T22:51:57.034Z,99969.81
2022-11-15T22:54:25.327Z,99956.03
2022-11-15T22:56:53.566Z,99964.75
2022-11-15T22:59:21.821Z,99934.25
2022-11-15T23:01:51.031Z,99975.28
2022-11-15T23:04:19.305Z,99968.25
2022-11-15T23:06:49.185Z,99967.50
2022-11-15T23:09:17.451Z,99971.97
2022-11-15T23:12:03.424Z,99973.69
2022-11-15T23:14:31.720Z,99979.69
2022-11-15T23:17:00.254Z,99970.88
2022-11-15T23:19:28.522Z,99969.16
2022-11-15T23:22:15.827Z,99973.53
2022-11-15T23:24:44.233Z,99959.59
2022-11-15T23:27:15.224Z,99953.28
2022-11-15T23:30:00.987Z,99949.72
2022-11-15T23:32:46.772Z,99958.44
2022-11-15T23:35:15.373Z,99940.91
2022-11-15T23:37:44.991Z,99960.16
2022-11-15T23:40:13.974Z,99932.19
2022-11-15T23:42:42.246Z,99943.56
2022-11-15T23:45:11.120Z,99945.31
2022-11-15T23:47:39.356Z,99941.81
2022-11-15T23:50:09.117Z,99950.66
2022-11-15T23:52:37.403Z,99955.03
2022-11-15T23:55:08.282Z,99940.25
2022-11-15T23:57:36.553Z,99962.09
